Time;durP1;ratioP1;P1;durP2;ratioP2;P2;SDS_P1;SDS_P2;PMS_P1;PMS_P2;Temp;Humidity;BMP_temperature;BMP_pressure;BME280_temperature;BME280_humidity;BME280_pressure;Samples;Min_cycle;Max_cycle;Signal;HPM_P1;HPM_P2
2023/05/21 00:01:51;;;;;;;;;15.75;14.25;;;;;18.01;53.06;100876.28;5071858;28;46184;-79
2023/05/21 00:04:16;;;;;;;;;12.75;12.75;;;;;17.96;53.02;100875.91;5070856;28;45713;-79
2023/05/21 00:06:42;;;;;;;;;13.00;12.75;;;;;17.96;52.65;100885.66;5072218;28;45855;-77
2023/05/21 00:09:27;;;;;;;;;15.00;12.00;;;;;17.55;53.25;100824.22;5071360;28;46494;-77
2023/05/21 00:11:53;;;;;;;;;7.75;7.25;;;;;17.64;52.68;100829.66;5069846;28;46103;-77
2023/05/21 00:14:18;;;;;;;;;17.00;16.00;;;;;17.92;53.38;100871.84;5070613;28;45640;-78
2023/05/21 00:16:45;;;;;;;;;17.75;17.50;;;;;17.85;53.29;100859.38;5060860;28;45780;-80
2023/05/21 00:19:11;;;;;;;;;14.25;14.25;;;;;17.75;53.27;100848.84;5069924;28;46883;-78
2023/05/21 00:21:38;;;;;;;;;14.25;14.25;;;;;17.89;53.39;100852.78;5070714;28;46021;-78
2023/05/21 00:24:04;;;;;;;;;19.25;18.00;;;;;17.92;53.55;100868.41;5070750;28;45899;-77
2023/05/21 00:26:30;;;;;;;;;15.00;15.00;;;;;17.64;53.25;100819.06;5070332;28;45815;-80
2023/05/21 00:28:55;;;;;;;;;16.75;16.00;;;;;17.85;53.67;100860.19;5042014;28;47162;-79
2023/05/21 00:31:21;;;;;;;;;18.00;15.75;;;;;17.84;53.75;100869.13;5070418;28;45765;-80
2023/05/21 00:33:46;;;;;;;;;18.75;15.00;;;;;17.80;53.73;100862.47;5070852;28;45665;-78
2023/05/21 00:36:13;;;;;;;;;18.00;17.25;;;;;17.79;53.53;100854.66;5049805;28;45689;-79
2023/05/21 00:38:42;;;;;;;;;20.00;18.25;;;;;17.80;53.74;100856.34;5070975;28;45770;-79
2023/05/21 00:41:08;;;;;;;;;18.25;16.50;;;;;17.80;53.66;100848.38;5070740;27;46067;-78
2023/05/21 00:43:33;;;;;;;;;18.75;16.50;;;;;17.78;54.26;100845.88;5070528;27;45839;-79
2023/05/21 00:45:58;;;;;;;;;18.00;17.75;;;;;17.74;54.40;100855.13;5069778;27;45577;-77
2023/05/21 00:48:24;;;;;;;;;18.50;18.25;;;;;17.56;54.00;100823.25;5068808;28;46281;-78
2023/05/21 00:50:53;;;;;;;;;11.50;11.00;;;;;17.61;54.29;100846.66;5069972;28;46206;-78
2023/05/21 00:53:18;;;;;;;;;19.75;18.25;;;;;17.53;54.76;100831.50;5061850;28;45768;-78
2023/05/21 00:55:45;;;;;;;;;19.75;18.25;;;;;17.54;54.71;100845.59;5067245;27;45677;-79
2023/05/21 00:58:13;;;;;;;;;19.00;17.00;;;;;17.48;54.71;100831.13;5064289;28;46787;-80
2023/05/21 01:00:42;;;;;;;;;19.25;19.25;;;;;17.41;54.38;100827.38;5066189;28;46497;-79
2023/05/21 01:03:08;;;;;;;;;21.50;18.00;;;;;17.44;54.56;100824.41;5070748;28;46081;-77
2023/05/21 01:05:35;;;;;;;;;21.00;19.00;;;;;17.34;54.72;100817.50;5069592;27;45760;-80
2023/05/21 01:08:01;;;;;;;;;21.00;19.00;;;;;17.47;54.88;100839.19;5070136;27;47464;-79
2023/05/21 01:10:28;;;;;;;;;20.75;19.75;;;;;17.44;54.82;100829.72;5070606;28;45789;-78
2023/05/21 01:12:57;;;;;;;;;17.75;16.75;;;;;17.41;55.11;100835.31;5071468;28;45784;-77
2023/05/21 01:15:25;;;;;;;;;19.25;18.25;;;;;17.42;54.97;100836.16;5070721;28;45767;-80
2023/05/21 01:17:53;;;;;;;;;17.00;17.00;;;;;17.36;55.40;100834.09;5069770;27;46040;-79
2023/05/21 01:20:19;;;;;;;;;20.50;18.75;;;;;17.34;55.13;100834.22;5069542;28;46565;-79
2023/05/21 01:22:51;;;;;;;;;21.00;19.00;;;;;17.31;55.74;100839.84;5071470;28;45665;-78
2023/05/21 01:25:26;;;;;;;;;23.75;19.75;;;;;17.29;55.71;100833.84;5071973;27;46047;-79
2023/05/21 01:27:54;;;;;;;;;22.00;21.00;;;;;17.27;55.39;100842.94;5039633;28;47415;-77
2023/05/21 01:30:24;;;;;;;;;20.00;19.00;;;;;17.13;55.70;100823.03;5071500;28;47212;-78
2023/05/21 01:33:04;;;;;;;;;18.00;18.00;;;;;17.25;55.62;100844.88;5073495;28;45760;-78
2023/05/21 01:35:33;;;;;;;;;21.25;21.00;;;;;17.26;55.96;100847.41;5054531;28;46016;-80
2023/05/21 01:38:11;;;;;;;;;23.75;18.25;;;;;17.09;56.06;100819.03;5073105;28;46362;-78
2023/05/21 01:41:02;;;;;;;;;18.25;18.00;;;;;17.08;55.94;100826.13;5072604;28;46131;-79
2023/05/21 01:43:30;;;;;;;;;20.50;19.00;;;;;17.15;56.08;100844.94;5068314;28;46045;-78
2023/05/21 01:46:04;;;;;;;;;20.00;17.50;;;;;17.12;55.91;100840.75;5072248;28;45925;-77
2023/05/21 01:48:30;;;;;;;;;19.25;18.00;;;;;17.11;56.30;100844.38;5070957;27;45942;-79
2023/05/21 01:51:13;;;;;;;;;22.50;21.00;;;;;17.02;56.60;100823.22;5072965;28;46011;-78
2023/05/21 01:53:39;;;;;;;;;24.00;22.25;;;;;17.12;56.19;100826.66;5064556;28;45844;-79
2023/05/21 01:56:07;;;;;;;;;22.25;20.50;;;;;16.97;56.28;100820.19;5067874;28;45723;-80
2023/05/21 01:58:33;;;;;;;;;22.75;20.50;;;;;16.86;56.66;100815.91;5064317;28;46103;-79
2023/05/21 02:00:58;;;;;;;;;22.75;21.25;;;;;16.88;56.42;100805.19;5061831;28;46118;-79
2023/05/21 02:03:26;;;;;;;;;23.00;23.00;;;;;17.03;56.76;100840.78;5073070;27;46064;-79
2023/05/21 02:05:52;;;;;;;;;21.75;19.25;;;;;16.98;56.45;100835.09;5068886;27;45626;-76
2023/05/21 02:08:18;;;;;;;;;23.75;21.00;;;;;16.94;56.71;100831.91;5073019;28;46165;-78
2023/05/21 02:10:44;;;;;;;;;22.50;21.00;;;;;16.87;56.99;100829.97;5072461;28;46260;-77
2023/05/21 02:13:10;;;;;;;;;22.50;21.25;;;;;16.85;57.07;100837.22;5072889;28;45660;-79
2023/05/21 02:15:39;;;;;;;;;23.50;22.75;;;;;16.74;56.78;100812.59;5066377;28;45740;-78
2023/05/21 02:18:04;;;;;;;;;28.00;24.00;;;;;16.89;57.01;100839.44;5069811;28;46254;-77
2023/05/21 02:20:33;;;;;;;;;25.25;23.50;;;;;16.82;56.71;100830.41;5071811;28;46164;-78
2023/05/21 02:22:58;;;;;;;;;22.75;22.25;;;;;16.89;56.98;100841.25;5072561;28;45724;-77
2023/05/21 02:25:24;;;;;;;;;26.50;23.75;;;;;16.92;57.39;100851.53;5071754;28;46156;-78
2023/05/21 02:27:52;;;;;;;;;22.25;21.25;;;;;16.87;57.15;100836.09;5072613;27;45732;-78
2023/05/21 02:30:18;;;;;;;;;23.25;22.00;;;;;16.84;57.36;100832.91;5072073;28;46129;-77
2023/05/21 02:32:43;;;;;;;;;23.75;20.50;;;;;16.64;57.33;100803.84;5072279;28;45630;-77
2023/05/21 02:35:10;;;;;;;;;22.50;21.00;;;;;16.91;57.33;100836.63;5061323;28;45656;-78
2023/05/21 02:37:36;;;;;;;;;26.00;25.00;;;;;16.85;57.48;100830.09;5072538;27;45807;-77
2023/05/21 02:40:04;;;;;;;;;24.50;21.25;;;;;16.91;57.02;100839.28;5072246;28;46090;-78
2023/05/21 02:42:30;;;;;;;;;25.50;24.00;;;;;16.90;57.13;100837.59;5072742;28;45770;-78
2023/05/21 02:44:55;;;;;;;;;25.25;22.00;;;;;16.75;57.17;100816.91;5072010;28;45824;-78
2023/05/21 02:47:22;;;;;;;;;22.25;21.00;;;;;16.87;57.31;100832.63;5071588;28;45955;-79
2023/05/21 02:49:49;;;;;;;;;23.50;23.00;;;;;16.93;57.35;100835.53;5071604;28;46150;-78
2023/05/21 02:52:14;;;;;;;;;21.25;20.50;;;;;16.90;56.87;100842.91;5068756;28;45747;-79
2023/05/21 02:54:40;;;;;;;;;23.75;21.50;;;;;16.86;57.16;100839.72;5071466;28;45699;-78
2023/05/21 02:57:06;;;;;;;;;23.25;23.00;;;;;16.66;57.60;100828.34;5068275;28;46398;-76
2023/05/21 02:59:31;;;;;;;;;24.75;24.25;;;;;16.79;57.40;100846.56;5061946;28;45739;-78
2023/05/21 03:01:56;;;;;;;;;31.75;28.00;;;;;16.60;57.40;100810.41;5071567;27;46027;-78
2023/05/21 03:04:22;;;;;;;;;25.50;21.50;;;;;16.74;57.57;100835.56;5071658;28;46126;-77
2023/05/21 03:06:50;;;;;;;;;27.75;26.25;;;;;16.69;57.81;100832.50;5071543;27;45746;-78
2023/05/21 03:09:16;;;;;;;;;29.00;24.00;;;;;16.40;57.59;100803.47;5071108;28;46184;-79
2023/05/21 03:11:42;;;;;;;;;28.00;26.50;;;;;16.59;58.11;100844.94;5071300;28;46126;-79
2023/05/21 03:14:08;;;;;;;;;25.75;24.75;;;;;16.35;58.13;100803.91;5072020;28;45860;-78
2023/05/21 03:16:34;;;;;;;;;25.25;24.25;;;;;16.58;57.81;100837.94;5069453;28;46679;-78
2023/05/21 03:19:00;;;;;;;;;30.50;26.25;;;;;16.49;58.20;100837.00;5067939;28;46486;-77
2023/05/21 03:21:28;;;;;;;;;28.75;25.75;;;;;16.53;58.51;100842.81;5071293;27;45747;-79
2023/05/21 03:23:57;;;;;;;;;27.00;24.00;;;;;16.52;58.36;100843.81;5071606;28;45786;-78
2023/05/21 03:26:23;;;;;;;;;31.50;27.50;;;;;16.53;58.37;100854.22;5067061;28;46619;-79
2023/05/21 03:28:48;;;;;;;;;27.00;25.50;;;;;16.49;58.66;100865.25;5071514;28;46324;-76
2023/05/21 03:31:14;;;;;;;;;28.25;24.75;;;;;16.42;58.68;100866.78;5050806;28;45559;-79
2023/05/21 03:33:45;;;;;;;;;29.50;28.00;;;;;16.33;58.52;100845.50;5071408;28;45778;-80
2023/05/21 03:36:10;;;;;;;;;26.00;22.75;;;;;16.35;58.75;100856.78;5070269;28;46413;-79
2023/05/21 03:38:36;;;;;;;;;24.00;23.00;;;;;16.31;58.95;100855.38;5071145;27;46176;-76
2023/05/21 03:41:01;;;;;;;;;27.00;26.75;;;;;16.17;59.03;100829.34;5071158;28;45688;-77
2023/05/21 03:43:27;;;;;;;;;30.25;25.75;;;;;16.20;59.20;100842.28;5038495;28;45834;-78
2023/05/21 03:45:53;;;;;;;;;27.75;24.25;;;;;16.13;59.45;100840.34;5064420;28;46606;-78
2023/05/21 03:48:19;;;;;;;;;25.75;24.75;;;;;16.23;59.34;100854.41;5071113;28;46459;-77
2023/05/21 03:50:44;;;;;;;;;25.50;24.50;;;;;16.15;59.33;100846.31;5071037;28;45983;-78
2023/05/21 03:53:09;;;;;;;;;25.00;24.00;;;;;16.16;59.40;100856.75;5070826;28;45587;-78
2023/05/21 03:55:35;;;;;;;;;26.50;25.50;;;;;16.16;59.60;100853.28;5069017;28;46644;-78
2023/05/21 03:58:00;;;;;;;;;34.50;30.00;;;;;16.18;59.40;100849.53;5064391;28;46364;-78
2023/05/21 04:00:26;;;;;;;;;28.00;24.50;;;;;16.18;59.54;100862.75;5069042;28;45715;-78
2023/05/21 04:02:51;;;;;;;;;31.25;29.00;;;;;16.18;59.76;100861.91;5071000;28;45805;-78
2023/05/21 04:05:17;;;;;;;;;26.00;24.50;;;;;16.11;59.66;100860.78;5070072;27;46524;-78
2023/05/21 04:07:45;;;;;;;;;30.50;26.00;;;;;16.08;59.77;100866.38;5070480;27;45795;-79
2023/05/21 04:10:11;;;;;;;;;29.75;27.50;;;;;15.98;59.90;100871.63;5070538;28;45638;-79
2023/05/21 04:12:36;;;;;;;;;32.75;28.75;;;;;15.88;60.02;100852.28;5070899;28;45609;-78
2023/05/21 04:15:01;;;;;;;;;28.75;28.00;;;;;15.98;59.93;100863.69;5064443;28;46381;-78
2023/05/21 04:17:27;;;;;;;;;29.50;26.50;;;;;15.94;60.15;100875.50;5068599;27;46439;-77
2023/05/21 04:19:53;;;;;;;;;28.75;26.50;;;;;15.78;59.93;100849.63;5048882;28;45923;-78
2023/05/21 04:22:18;;;;;;;;;34.50;31.00;;;;;15.91;60.34;100878.44;5052591;28;45886;-77
2023/05/21 04:24:45;;;;;;;;;31.75;28.25;;;;;15.76;60.43;100854.19;5047995;27;46401;-79
2023/05/21 04:27:10;;;;;;;;;27.50;25.50;;;;;15.90;60.12;100874.97;5070149;27;46092;-79
2023/05/21 04:29:36;;;;;;;;;31.50;29.00;;;;;15.86;60.03;100867.44;5070369;28;45870;-78
2023/05/21 04:32:03;;;;;;;;;31.00;28.50;;;;;15.88;60.30;100874.25;5052548;28;45804;-77
2023/05/21 04:34:28;;;;;;;;;26.00;25.00;;;;;15.92;60.19;100875.66;5051913;28;48763;-78
2023/05/21 04:36:54;;;;;;;;;29.75;27.25;;;;;15.97;60.26;100882.34;5070001;28;46418;-76
2023/05/21 04:39:19;;;;;;;;;29.00;25.50;;;;;15.89;60.36;100868.00;5070774;28;45757;-75
2023/05/21 04:41:45;;;;;;;;;34.25;30.00;;;;;15.97;60.36;100871.78;5070450;28;45759;-78
2023/05/21 04:44:13;;;;;;;;;32.50;26.00;;;;;15.99;60.32;100875.09;5070378;28;45722;-78
2023/05/21 04:46:39;;;;;;;;;32.25;30.00;;;;;15.81;60.27;100848.53;5069684;28;46179;-79
2023/05/21 04:49:04;;;;;;;;;33.00;30.50;;;;;15.95;60.36;100871.91;5070431;28;46229;-79
2023/05/21 04:51:30;;;;;;;;;28.50;27.50;;;;;15.95;60.38;100880.69;5069466;28;45892;-80
2023/05/21 04:53:56;;;;;;;;;28.75;28.00;;;;;15.98;60.36;100895.41;5069934;28;45746;-78
2023/05/21 04:56:25;;;;;;;;;26.50;26.00;;;;;15.93;60.31;100893.19;5064747;28;46263;-79
2023/05/21 04:58:51;;;;;;;;;32.50;29.25;;;;;15.94;60.38;100881.63;5060750;28;46119;-78
2023/05/21 05:01:18;;;;;;;;;29.25;25.00;;;;;15.86;60.21;100859.53;5069925;28;45853;-78
2023/05/21 05:03:44;;;;;;;;;30.75;28.50;;;;;15.78;60.17;100844.34;5069376;28;45798;-77
2023/05/21 05:06:09;;;;;;;;;27.50;26.25;;;;;15.99;60.18;100878.59;5066980;28;46257;-77
2023/05/21 05:08:35;;;;;;;;;32.25;28.50;;;;;15.99;60.31;100872.47;5064718;28;45568;-78
2023/05/21 05:11:00;;;;;;;;;29.50;27.00;;;;;16.02;60.11;100882.78;5069793;28;45647;-76
2023/05/21 05:13:26;;;;;;;;;29.50;24.75;;;;;15.92;60.31;100872.19;5070040;27;46174;-77
2023/05/21 05:15:52;;;;;;;;;30.50;27.50;;;;;16.00;60.23;100887.34;5068992;28;45826;-78
2023/05/21 05:18:18;;;;;;;;;27.00;25.50;;;;;16.02;60.28;100882.78;5068741;27;45792;-79
2023/05/21 05:20:43;;;;;;;;;28.75;27.00;;;;;16.05;60.38;100885.13;5068055;27;45987;-80
2023/05/21 05:23:09;;;;;;;;;30.75;27.75;;;;;16.03;59.97;100876.53;5069459;27;46602;-77
2023/05/21 05:25:34;;;;;;;;;33.25;31.50;;;;;16.06;60.18;100887.66;5067024;27;45945;-77
2023/05/21 05:28:00;;;;;;;;;33.50;28.75;;;;;16.06;60.18;100887.66;5069961;28;45900;-76
2023/05/21 05:30:25;;;;;;;;;27.75;26.00;;;;;16.09;60.23;100889.16;5069400;28;45731;-75
2023/05/21 05:32:50;;;;;;;;;34.75;29.50;;;;;16.11;60.17;100876.66;5069732;28;46348;-77
2023/05/21 05:35:16;;;;;;;;;36.50;31.50;;;;;16.12;59.96;100881.81;5069241;28;46142;-76
2023/05/21 05:37:41;;;;;;;;;29.50;28.50;;;;;16.16;60.01;100880.56;5069391;28;45699;-78
2023/05/21 05:40:07;;;;;;;;;30.50;27.25;;;;;16.20;59.83;100887.22;5069206;27;45706;-76
2023/05/21 05:42:32;;;;;;;;;31.25;28.00;;;;;16.20;60.06;100881.94;5069034;28;46519;-77
2023/05/21 05:44:58;;;;;;;;;27.25;25.75;;;;;16.26;59.91;100891.97;5050525;28;48308;-78
2023/05/21 05:47:23;;;;;;;;;27.00;27.00;;;;;16.24;59.87;100885.16;5069599;28;45685;-76
2023/05/21 05:49:48;;;;;;;;;32.50;30.50;;;;;16.28;59.78;100889.19;5051281;28;45732;-77
2023/05/21 05:52:14;;;;;;;;;30.25;27.25;;;;;16.28;59.82;100886.56;5069636;28;46601;-79
2023/05/21 05:54:39;;;;;;;;;33.00;29.50;;;;;16.29;59.86;100881.13;5050110;28;46835;-76
2023/05/21 05:57:05;;;;;;;;;29.00;26.75;;;;;16.30;59.58;100879.31;5065276;28;45573;-76
2023/05/21 05:59:32;;;;;;;;;32.75;30.50;;;;;16.31;59.67;100891.53;5056446;28;45819;-76
2023/05/21 06:01:58;;;;;;;;;34.50;30.25;;;;;16.38;59.58;100892.66;5068755;28;47078;-74
2023/05/21 06:04:23;;;;;;;;;34.00;32.00;;;;;16.32;59.43;100875.56;5068845;28;45964;-74
2023/05/21 06:06:48;;;;;;;;;30.50;28.25;;;;;16.33;59.53;100869.28;5068814;28;45882;-76
2023/05/21 06:09:14;;;;;;;;;34.75;29.00;;;;;16.42;59.32;100880.84;5070866;28;45820;-75
2023/05/21 06:11:39;;;;;;;;;35.25;32.00;;;;;16.40;59.46;100874.88;5050418;28;47380;-75
2023/05/21 06:14:04;;;;;;;;;30.50;26.75;;;;;16.42;59.29;100875.53;5071714;28;45731;-75
2023/05/21 06:16:30;;;;;;;;;28.00;28.00;;;;;16.50;59.07;100880.97;5064039;28;45768;-76
2023/05/21 06:18:56;;;;;;;;;34.25;30.75;;;;;16.44;59.18;100878.88;5071637;28;45922;-75
2023/05/21 06:21:21;;;;;;;;;29.75;26.00;;;;;16.45;59.41;100883.22;5050521;28;47541;-75
2023/05/21 06:23:46;;;;;;;;;30.50;27.00;;;;;16.48;59.38;100887.38;5071746;28;46525;-74
2023/05/21 06:26:12;;;;;;;;;32.75;29.25;;;;;16.47;59.23;100883.88;5071749;28;45714;-75
2023/05/21 06:28:37;;;;;;;;;29.00;28.00;;;;;16.41;59.12;100884.44;5072396;28;46153;-74
2023/05/21 06:31:02;;;;;;;;;37.00;31.00;;;;;16.47;59.15;100896.28;5037040;28;46340;-75
2023/05/21 06:33:28;;;;;;;;;30.25;29.50;;;;;16.48;59.58;100896.16;5052601;28;48139;-76
2023/05/21 06:35:54;;;;;;;;;31.25;27.75;;;;;16.50;59.02;100893.38;5071805;27;45915;-75
2023/05/21 06:38:19;;;;;;;;;35.75;29.75;;;;;16.58;59.21;100901.41;5072673;28;45622;-74
2023/05/21 06:40:46;;;;;;;;;33.50;30.75;;;;;16.56;58.92;100884.88;5072224;27;46356;-77
2023/05/21 06:43:12;;;;;;;;;34.50;32.00;;;;;16.63;59.12;100893.94;5072052;28;46286;-76
2023/05/21 06:45:38;;;;;;;;;30.75;29.50;;;;;16.70;59.03;100900.34;5071956;28;45843;-76
2023/05/21 06:48:03;;;;;;;;;32.75;31.00;;;;;16.73;59.00;100911.47;5053995;28;45632;-75
2023/05/21 06:50:29;;;;;;;;;31.25;28.50;;;;;16.68;58.71;100879.31;5064711;28;46569;-77
2023/05/21 06:52:54;;;;;;;;;34.25;28.50;;;;;16.71;58.77;100884.31;5053177;28;47726;-76
2023/05/21 06:55:20;;;;;;;;;30.75;29.50;;;;;16.83;58.78;100894.75;5072164;28;45823;-76
2023/05/21 06:57:45;;;;;;;;;35.75;30.00;;;;;16.86;58.70;100886.53;5066593;28;45722;-77
2023/05/21 07:00:11;;;;;;;;;31.00;27.50;;;;;16.84;58.62;100886.69;5063732;28;46334;-76
2023/05/21 07:02:36;;;;;;;;;25.25;24.00;;;;;16.92;58.32;100897.38;5071678;28;45646;-77
2023/05/21 07:05:02;;;;;;;;;28.00;27.00;;;;;16.92;58.06;100878.00;5071095;28;45682;-74
2023/05/21 07:07:27;;;;;;;;;29.25;26.75;;;;;16.95;58.03;100890.97;5067900;28;46132;-73
2023/05/21 07:09:53;;;;;;;;;34.25;31.00;;;;;16.96;58.33;100890.81;5071452;28;46431;-75
2023/05/21 07:12:18;;;;;;;;;30.50;28.75;;;;;16.99;58.02;100897.66;5071410;27;46453;-76
2023/05/21 07:14:43;;;;;;;;;27.50;26.00;;;;;16.96;57.82;100889.97;5066949;28;45730;-75
2023/05/21 07:17:08;;;;;;;;;28.25;27.75;;;;;16.85;58.06;100882.19;5070107;28;45965;-75
2023/05/21 07:19:34;;;;;;;;;31.50;29.00;;;;;16.96;58.17;100890.81;5070715;27;46972;-76
2023/05/21 07:21:59;;;;;;;;;20.00;18.75;;;;;17.02;58.04;100900.84;5062708;28;46363;-76
2023/05/21 07:24:26;;;;;;;;;28.50;26.00;;;;;16.96;58.21;100888.16;5063884;28;45641;-76
2023/05/21 07:26:51;;;;;;;;;30.75;28.25;;;;;17.07;58.00;100903.03;5071171;27;46223;-78
2023/05/21 07:29:17;;;;;;;;;28.75;26.25;;;;;17.01;58.18;100891.22;5070972;28;45921;-76
2023/05/21 07:31:42;;;;;;;;;25.75;24.75;;;;;17.10;57.59;100897.47;5071081;28;46691;-75
2023/05/21 07:34:08;;;;;;;;;32.50;29.75;;;;;17.04;57.72;100887.47;5045735;28;45709;-76
2023/05/21 07:36:33;;;;;;;;;31.00;30.00;;;;;17.15;57.35;100901.38;5071337;27;45792;-76
2023/05/21 07:38:59;;;;;;;;;26.25;24.00;;;;;17.16;57.59;100904.84;5071596;28;45661;-76
2023/05/21 07:41:25;;;;;;;;;30.25;28.00;;;;;17.18;57.27;100905.53;5049709;28;48040;-75
2023/05/21 07:43:50;;;;;;;;;26.00;23.50;;;;;17.16;57.26;100924.22;5071507;28;45875;-73
2023/05/21 07:46:15;;;;;;;;;31.25;28.50;;;;;17.21;57.14;100899.97;5070643;28;46120;-76
2023/05/21 07:48:42;;;;;;;;;26.75;24.50;;;;;17.23;56.97;100905.94;5045892;28;47310;-75
2023/05/21 07:51:08;;;;;;;;;33.25;31.50;;;;;17.26;57.44;100904.81;5068333;28;46355;-75
2023/05/21 07:53:33;;;;;;;;;29.00;23.00;;;;;17.27;57.34;100896.72;5071282;28;45555;-77
2023/05/21 07:56:00;;;;;;;;;34.50;29.25;;;;;17.22;57.22;100880.41;5065587;28;46094;-75
2023/05/21 07:58:27;;;;;;;;;30.75;28.00;;;;;17.38;57.02;100885.94;5053113;28;47499;-74
2023/05/21 08:00:52;;;;;;;;;31.00;29.00;;;;;17.38;57.10;100883.28;5070102;27;46292;-75
2023/05/21 08:03:18;;;;;;;;;23.75;23.00;;;;;17.46;56.61;100885.22;5071309;28;45794;-76
2023/05/21 08:05:47;;;;;;;;;25.75;22.75;;;;;17.42;56.59;100878.53;5070005;28;45679;-75
2023/05/21 08:08:14;;;;;;;;;25.25;23.50;;;;;17.55;56.93;100897.56;5071330;28;47360;-74
2023/05/21 08:10:40;;;;;;;;;25.75;24.00;;;;;17.61;56.52;100897.00;5070551;27;46310;-74
2023/05/21 08:13:05;;;;;;;;;22.50;21.50;;;;;17.62;56.51;100893.38;5071046;28;45722;-76
2023/05/21 08:15:31;;;;;;;;;19.50;18.75;;;;;17.65;56.66;100877.22;5068800;28;46096;-76
2023/05/21 08:17:56;;;;;;;;;19.00;17.00;;;;;17.76;56.02;100894.72;5068460;28;47320;-74
2023/05/21 08:20:21;;;;;;;;;23.25;21.50;;;;;17.78;55.96;100898.88;5068292;28;45868;-76
2023/05/21 08:22:47;;;;;;;;;23.75;21.00;;;;;17.79;55.93;100892.59;5071297;28;45855;-75
2023/05/21 08:25:12;;;;;;;;;23.50;22.75;;;;;17.80;55.48;100886.31;5070598;28;45875;-77
2023/05/21 08:27:37;;;;;;;;;23.50;23.00;;;;;17.78;55.38;100869.72;5072197;27;46324;-77
2023/05/21 08:30:04;;;;;;;;;19.00;18.75;;;;;17.76;55.63;100858.44;5070524;28;46394;-76
2023/05/21 08:32:30;;;;;;;;;22.00;21.25;;;;;17.83;55.38;100858.66;5061726;28;46099;-76
2023/05/21 08:34:57;;;;;;;;;18.75;18.00;;;;;17.87;55.41;100884.72;5070584;28;46135;-75
2023/05/21 08:37:22;;;;;;;;;19.75;17.75;;;;;17.95;55.21;100868.94;5072506;28;46769;-74
2023/05/21 08:39:47;;;;;;;;;18.00;17.50;;;;;17.95;55.02;100868.94;5072222;28;46205;-76
2023/05/21 08:42:38;;;;;;;;;17.50;16.00;;;;;18.02;54.82;100870.00;5054678;28;45724;-77
2023/05/21 08:45:07;;;;;;;;;13.25;13.25;;;;;18.01;54.39;100867.50;5070168;28;45907;-75
2023/05/21 08:47:35;;;;;;;;;19.50;16.50;;;;;18.07;54.28;100877.50;5070418;28;46357;-76
2023/05/21 08:50:04;;;;;;;;;18.25;16.25;;;;;18.07;53.97;100874.84;5052007;28;47076;-76
2023/05/21 08:52:31;;;;;;;;;18.50;15.75;;;;;18.15;53.88;100884.69;5072219;28;45700;-74
2023/05/21 08:54:57;;;;;;;;;15.25;15.25;;;;;18.16;53.65;100868.63;5073258;28;45672;-78
2023/05/21 08:57:25;;;;;;;;;18.25;16.75;;;;;18.18;53.80;100879.09;5067421;28;46380;-75
2023/05/21 08:59:51;;;;;;;;;17.75;17.50;;;;;18.18;53.93;100866.66;5066181;28;46365;-75
2023/05/21 09:02:18;;;;;;;;;16.75;14.50;;;;;18.25;53.65;100872.19;5076081;28;45708;-77
2023/05/21 09:04:48;;;;;;;;;15.25;13.00;;;;;18.30;53.54;100878.69;5070133;28;45688;-75
2023/05/21 09:07:14;;;;;;;;;18.00;17.25;;;;;18.34;54.07;100860.66;5074086;27;46475;-77
2023/05/21 09:10:09;;;;;;;;;18.00;16.25;;;;;18.41;53.83;100859.88;5072919;28;46011;-74
2023/05/21 09:12:35;;;;;;;;;21.50;18.00;;;;;18.48;53.55;100861.94;5071695;27;45695;-75
2023/05/21 09:15:00;;;;;;;;;16.25;16.00;;;;;18.50;53.20;100863.47;5066684;28;45866;-76
2023/05/21 09:17:26;;;;;;;;;16.50;16.50;;;;;18.56;53.28;100870.84;5071469;28;46517;-78
2023/05/21 09:20:12;;;;;;;;;15.75;15.00;;;;;18.61;53.12;100871.22;5074646;28;46259;-78
2023/05/21 09:22:48;;;;;;;;;12.25;12.25;;;;;18.66;52.93;100870.75;5074435;28;45683;-76
2023/05/21 09:25:23;;;;;;;;;15.00;14.00;;;;;18.68;52.45;100868.75;5080127;28;45761;-75
2023/05/21 09:27:49;;;;;;;;;16.75;14.75;;;;;18.71;52.50;100858.69;5081526;28;45777;-76
2023/05/21 09:30:16;;;;;;;;;18.00;16.25;;;;;18.76;52.25;100874.13;5061832;28;47359;-75
2023/05/21 09:32:43;;;;;;;;;16.00;15.50;;;;;18.76;52.24;100866.16;5075464;28;45722;-75
2023/05/21 09:35:11;;;;;;;;;17.50;14.50;;;;;18.73;52.63;100847.91;5070404;28;45759;-77
2023/05/21 09:37:46;;;;;;;;;14.75;14.75;;;;;18.82;52.54;100863.72;5070802;28;47790;-76
2023/05/21 09:40:19;;;;;;;;;18.50;16.50;;;;;18.85;52.74;100857.25;5067015;28;45926;-77
2023/05/21 09:42:50;;;;;;;;;20.75;18.25;;;;;18.93;52.08;100872.41;5070426;28;45778;-78
2023/05/21 09:45:19;;;;;;;;;17.50;17.00;;;;;18.97;52.68;100881.72;5073560;28;46016;-76
2023/05/21 09:47:46;;;;;;;;;19.50;16.75;;;;;18.98;52.18;100870.97;5073816;28;46802;-77
2023/05/21 09:50:17;;;;;;;;;20.00;19.75;;;;;19.01;52.25;100875.94;5073990;28;46159;-76
2023/05/21 09:52:42;;;;;;;;;20.25;18.00;;;;;18.97;52.14;100855.19;5064424;28;45872;-75
2023/05/21 09:55:12;;;;;;;;;21.00;19.00;;;;;19.03;52.25;100851.91;5057733;28;45975;-77
2023/05/21 09:57:57;;;;;;;;;21.75;18.50;;;;;18.95;52.20;100842.06;5071834;27;46816;-75
2023/05/21 10:00:27;;;;;;;;;22.00;21.50;;;;;19.09;51.97;100867.22;5048512;28;48317;-77
2023/05/21 10:02:54;;;;;;;;;21.75;20.75;;;;;19.10;52.37;100856.44;5073140;28;45729;-76
2023/05/21 10:05:22;;;;;;;;;23.75;22.75;;;;;19.06;52.53;100825.00;5051949;28;46168;-77
2023/05/21 10:07:50;;;;;;;;;19.50;17.50;;;;;19.17;52.10;100851.31;5073361;27;46517;-78
2023/05/21 10:10:19;;;;;;;;;21.00;20.00;;;;;19.15;52.05;100838.19;5072878;28;46185;-74
2023/05/21 10:12:46;;;;;;;;;20.25;20.00;;;;;19.18;52.10;100835.22;5049951;28;45662;-75
2023/05/21 10:15:19;;;;;;;;;24.00;22.25;;;;;19.29;52.55;100853.53;5068364;28;45763;-76
2023/05/21 10:17:47;;;;;;;;;22.75;22.00;;;;;19.34;51.99;100845.06;5073489;28;46796;-76
2023/05/21 10:20:12;;;;;;;;;28.25;27.25;;;;;19.40;51.97;100841.78;5071935;27;46178;-75
2023/05/21 10:22:39;;;;;;;;;21.75;19.00;;;;;19.45;51.78;100838.66;5073088;28;45865;-77
2023/05/21 10:25:06;;;;;;;;;24.75;22.00;;;;;19.52;52.06;100845.03;5072055;28;45679;-76
2023/05/21 10:27:33;;;;;;;;;23.50;20.00;;;;;19.56;51.57;100839.22;5072564;28;47374;-78
2023/05/21 10:29:58;;;;;;;;;23.00;22.50;;;;;19.61;51.28;100846.69;5053932;27;47178;-75
2023/05/21 10:32:26;;;;;;;;;22.75;21.00;;;;;19.61;51.29;100828.94;5072774;28;45618;-76
2023/05/21 10:34:56;;;;;;;;;22.50;22.00;;;;;19.69;51.01;100826.31;5053965;28;45735;-77
2023/05/21 10:37:26;;;;;;;;;21.25;18.75;;;;;19.73;51.09;100818.81;5072857;28;46655;-74
2023/05/21 10:39:52;;;;;;;;;20.25;19.50;;;;;19.79;50.68;100825.31;5072010;27;46206;-76
2023/05/21 10:42:25;;;;;;;;;22.75;19.00;;;;;19.79;50.84;100822.66;5072923;28;46089;-75
2023/05/21 10:45:02;;;;;;;;;22.50;20.50;;;;;19.88;50.13;100834.97;5053970;28;45906;-76
2023/05/21 10:48:01;;;;;;;;;26.00;24.25;;;;;19.94;50.53;100832.50;5051590;28;46652;-76
2023/05/21 10:50:55;;;;;;;;;23.25;23.25;;;;;19.97;50.20;100823.38;5063899;28;46353;-74
2023/05/21 10:53:23;;;;;;;;;22.75;21.50;;;;;19.98;50.37;100817.84;5070225;28;45823;-76
2023/05/21 10:56:16;;;;;;;;;22.50;21.75;;;;;20.01;50.09;100828.19;5068129;27;45558;-76
2023/05/21 10:58:58;;;;;;;;;20.25;19.25;;;;;20.02;50.07;100819.22;5059442;28;45860;-75
2023/05/21 11:01:32;;;;;;;;;23.00;21.75;;;;;20.05;49.99;100808.22;5052114;27;48232;-75
2023/05/21 11:03:58;;;;;;;;;23.75;21.00;;;;;20.17;50.31;100821.22;5068512;28;45649;-75
2023/05/21 11:06:25;;;;;;;;;20.00;19.25;;;;;20.22;49.88;100816.22;5071664;28;45642;-75
2023/05/21 11:08:52;;;;;;;;;18.50;18.50;;;;;20.26;49.36;100829.03;5071986;27;46863;-75
2023/05/21 11:11:50;;;;;;;;;21.25;20.00;;;;;20.25;49.48;100811.38;5071540;28;46373;-76